sensor_id;sensor_type;location;lat;lon;timestamp;P1;durP1;ratioP1;P2;durP2;ratioP2
14121;SDS011;7139;48.114;11.442;2023-07-09T00:01:44;8.70;;;6.27;;
14121;SDS011;7139;48.114;11.442;2023-07-09T00:04:11;7.70;;;6.10;;
14121;SDS011;7139;48.114;11.442;2023-07-09T00:06:38;9.77;;;6.10;;
14121;SDS011;7139;48.114;11.442;2023-07-09T00:09:06;6.30;;;5.70;;
14121;SDS011;7139;48.114;11.442;2023-07-09T00:11:37;7.33;;;6.07;;
14121;SDS011;7139;48.114;11.442;2023-07-09T00:14:04;7.77;;;5.70;;
14121;SDS011;7139;48.114;11.442;2023-07-09T00:16:31;7.23;;;5.53;;
14121;SDS011;7139;48.114;11.442;2023-07-09T00:19:00;6.70;;;5.33;;
14121;SDS011;7139;48.114;11.442;2023-07-09T00:21:27;7.23;;;5.50;;
14121;SDS011;7139;48.114;11.442;2023-07-09T00:23:58;9.07;;;5.57;;
14121;SDS011;7139;48.114;11.442;2023-07-09T00:26:27;5.73;;;5.03;;
14121;SDS011;7139;48.114;11.442;2023-07-09T00:28:55;7.23;;;5.93;;
14121;SDS011;7139;48.114;11.442;2023-07-09T00:31:22;6.50;;;5.30;;
14121;SDS011;7139;48.114;11.442;2023-07-09T00:33:49;5.73;;;5.13;;
14121;SDS011;7139;48.114;11.442;2023-07-09T00:36:18;9.53;;;5.77;;
14121;SDS011;7139;48.114;11.442;2023-07-09T00:38:49;6.73;;;5.27;;
14121;SDS011;7139;48.114;11.442;2023-07-09T00:41:17;6.73;;;5.50;;
14121;SDS011;7139;48.114;11.442;2023-07-09T00:43:46;7.47;;;5.80;;
14121;SDS011;7139;48.114;11.442;2023-07-09T00:46:15;6.57;;;5.80;;
14121;SDS011;7139;48.114;11.442;2023-07-09T00:49:04;6.83;;;5.57;;
14121;SDS011;7139;48.114;11.442;2023-07-09T00:51:36;6.17;;;5.57;;
14121;SDS011;7139;48.114;11.442;2023-07-09T00:54:08;7.07;;;5.70;;
14121;SDS011;7139;48.114;11.442;2023-07-09T00:56:45;7.07;;;5.50;;
14121;SDS011;7139;48.114;11.442;2023-07-09T00:59:17;5.67;;;5.17;;
14121;SDS011;7139;48.114;11.442;2023-07-09T01:01:46;6.80;;;5.97;;
14121;SDS011;7139;48.114;11.442;2023-07-09T01:04:15;5.97;;;5.33;;
14121;SDS011;7139;48.114;11.442;2023-07-09T01:06:45;7.47;;;5.90;;
14121;SDS011;7139;48.114;11.442;2023-07-09T01:09:16;6.03;;;5.43;;
14121;SDS011;7139;48.114;11.442;2023-07-09T01:11:43;8.43;;;5.73;;
14121;SDS011;7139;48.114;11.442;2023-07-09T01:14:11;8.73;;;5.47;;
14121;SDS011;7139;48.114;11.442;2023-07-09T01:16:46;6.73;;;5.73;;
14121;SDS011;7139;48.114;11.442;2023-07-09T01:19:21;6.70;;;5.80;;
14121;SDS011;7139;48.114;11.442;2023-07-09T01:21:50;6.57;;;5.87;;
14121;SDS011;7139;48.114;11.442;2023-07-09T01:27:17;9.27;;;5.90;;
14121;SDS011;7139;48.114;11.442;2023-07-09T01:29:45;6.23;;;5.17;;
14121;SDS011;7139;48.114;11.442;2023-07-09T01:32:14;7.17;;;5.67;;
14121;SDS011;7139;48.114;11.442;2023-07-09T01:34:42;6.70;;;5.80;;
14121;SDS011;7139;48.114;11.442;2023-07-09T01:37:10;6.77;;;5.30;;
14121;SDS011;7139;48.114;11.442;2023-07-09T01:39:37;7.93;;;5.70;;
14121;SDS011;7139;48.114;11.442;2023-07-09T01:42:05;7.00;;;5.77;;
14121;SDS011;7139;48.114;11.442;2023-07-09T01:44:33;6.50;;;5.77;;
14121;SDS011;7139;48.114;11.442;2023-07-09T01:47:00;8.63;;;5.37;;
14121;SDS011;7139;48.114;11.442;2023-07-09T01:49:28;7.70;;;6.00;;
14121;SDS011;7139;48.114;11.442;2023-07-09T01:51:57;7.30;;;5.63;;
14121;SDS011;7139;48.114;11.442;2023-07-09T01:54:27;7.43;;;5.53;;
14121;SDS011;7139;48.114;11.442;2023-07-09T01:56:54;6.90;;;5.73;;
14121;SDS011;7139;48.114;11.442;2023-07-09T01:59:26;6.67;;;5.80;;
14121;SDS011;7139;48.114;11.442;2023-07-09T02:01:53;8.73;;;5.67;;
14121;SDS011;7139;48.114;11.442;2023-07-09T02:04:22;7.53;;;5.57;;
14121;SDS011;7139;48.114;11.442;2023-07-09T02:06:53;6.23;;;5.63;;
14121;SDS011;7139;48.114;11.442;2023-07-09T02:09:19;9.23;;;6.00;;
14121;SDS011;7139;48.114;11.442;2023-07-09T02:11:47;8.43;;;6.07;;
14121;SDS011;7139;48.114;11.442;2023-07-09T02:14:14;7.50;;;5.67;;
14121;SDS011;7139;48.114;11.442;2023-07-09T02:16:41;7.30;;;5.83;;
14121;SDS011;7139;48.114;11.442;2023-07-09T02:19:08;7.67;;;5.83;;
14121;SDS011;7139;48.114;11.442;2023-07-09T02:21:35;7.40;;;5.50;;
14121;SDS011;7139;48.114;11.442;2023-07-09T02:24:01;6.87;;;5.47;;
14121;SDS011;7139;48.114;11.442;2023-07-09T02:26:29;6.47;;;5.43;;
14121;SDS011;7139;48.114;11.442;2023-07-09T02:28:57;8.00;;;5.90;;
14121;SDS011;7139;48.114;11.442;2023-07-09T02:31:23;8.07;;;5.93;;
14121;SDS011;7139;48.114;11.442;2023-07-09T02:33:50;7.93;;;5.40;;
14121;SDS011;7139;48.114;11.442;2023-07-09T02:36:17;7.17;;;5.43;;
14121;SDS011;7139;48.114;11.442;2023-07-09T02:38:44;6.07;;;5.40;;
14121;SDS011;7139;48.114;11.442;2023-07-09T02:41:11;6.63;;;5.93;;
14121;SDS011;7139;48.114;11.442;2023-07-09T02:43:37;7.17;;;5.83;;
14121;SDS011;7139;48.114;11.442;2023-07-09T02:46:05;10.07;;;5.40;;
14121;SDS011;7139;48.114;11.442;2023-07-09T02:48:32;6.57;;;5.60;;
14121;SDS011;7139;48.114;11.442;2023-07-09T02:50:59;7.07;;;5.47;;
14121;SDS011;7139;48.114;11.442;2023-07-09T02:53:27;6.37;;;5.57;;
14121;SDS011;7139;48.114;11.442;2023-07-09T02:55:53;6.60;;;5.87;;
14121;SDS011;7139;48.114;11.442;2023-07-09T02:58:20;7.07;;;5.50;;
14121;SDS011;7139;48.114;11.442;2023-07-09T03:00:48;6.30;;;5.40;;
14121;SDS011;7139;48.114;11.442;2023-07-09T03:03:19;8.03;;;6.13;;
14121;SDS011;7139;48.114;11.442;2023-07-09T03:05:45;8.27;;;6.07;;
14121;SDS011;7139;48.114;11.442;2023-07-09T03:08:13;7.90;;;5.47;;
14121;SDS011;7139;48.114;11.442;2023-07-09T03:10:40;7.57;;;5.80;;
14121;SDS011;7139;48.114;11.442;2023-07-09T03:13:07;6.47;;;5.80;;
14121;SDS011;7139;48.114;11.442;2023-07-09T03:15:34;6.20;;;5.60;;
14121;SDS011;7139;48.114;11.442;2023-07-09T03:18:01;6.97;;;5.93;;
14121;SDS011;7139;48.114;11.442;2023-07-09T03:20:29;8.73;;;5.67;;
14121;SDS011;7139;48.114;11.442;2023-07-09T03:22:55;7.57;;;5.93;;
14121;SDS011;7139;48.114;11.442;2023-07-09T03:25:22;7.50;;;5.73;;
14121;SDS011;7139;48.114;11.442;2023-07-09T03:27:49;7.97;;;6.10;;
14121;SDS011;7139;48.114;11.442;2023-07-09T03:30:16;6.50;;;5.77;;
14121;SDS011;7139;48.114;11.442;2023-07-09T03:32:43;7.70;;;5.93;;
14121;SDS011;7139;48.114;11.442;2023-07-09T03:35:10;7.83;;;5.30;;
14121;SDS011;7139;48.114;11.442;2023-07-09T03:37:38;6.13;;;5.53;;
14121;SDS011;7139;48.114;11.442;2023-07-09T03:40:05;7.20;;;5.67;;
14121;SDS011;7139;48.114;11.442;2023-07-09T03:42:35;6.23;;;5.50;;
14121;SDS011;7139;48.114;11.442;2023-07-09T03:45:01;8.03;;;5.47;;
14121;SDS011;7139;48.114;11.442;2023-07-09T03:47:28;6.20;;;5.60;;
14121;SDS011;7139;48.114;11.442;2023-07-09T03:49:55;7.73;;;6.00;;
14121;SDS011;7139;48.114;11.442;2023-07-09T03:52:22;6.60;;;5.50;;
14121;SDS011;7139;48.114;11.442;2023-07-09T03:54:50;6.33;;;5.53;;
14121;SDS011;7139;48.114;11.442;2023-07-09T03:57:17;7.30;;;5.20;;
14121;SDS011;7139;48.114;11.442;2023-07-09T03:59:43;7.43;;;6.00;;
14121;SDS011;7139;48.114;11.442;2023-07-09T04:02:10;6.73;;;5.80;;
14121;SDS011;7139;48.114;11.442;2023-07-09T04:04:37;7.97;;;5.60;;
14121;SDS011;7139;48.114;11.442;2023-07-09T04:07:04;7.00;;;6.23;;
14121;SDS011;7139;48.114;11.442;2023-07-09T04:09:30;7.33;;;5.63;;
14121;SDS011;7139;48.114;11.442;2023-07-09T04:11:58;7.17;;;5.43;;
14121;SDS011;7139;48.114;11.442;2023-07-09T04:14:26;8.00;;;5.47;;
14121;SDS011;7139;48.114;11.442;2023-07-09T04:16:53;6.10;;;5.53;;
14121;SDS011;7139;48.114;11.442;2023-07-09T04:19:20;6.73;;;5.30;;
14121;SDS011;7139;48.114;11.442;2023-07-09T04:21:46;6.03;;;5.27;;
14121;SDS011;7139;48.114;11.442;2023-07-09T04:24:13;6.43;;;5.20;;
14121;SDS011;7139;48.114;11.442;2023-07-09T04:26:42;6.20;;;5.47;;
14121;SDS011;7139;48.114;11.442;2023-07-09T04:29:11;6.97;;;5.57;;
14121;SDS011;7139;48.114;11.442;2023-07-09T04:31:39;7.27;;;5.80;;
14121;SDS011;7139;48.114;11.442;2023-07-09T04:34:07;9.10;;;5.63;;
14121;SDS011;7139;48.114;11.442;2023-07-09T04:36:35;6.13;;;5.53;;
14121;SDS011;7139;48.114;11.442;2023-07-09T04:39:02;7.13;;;5.60;;
14121;SDS011;7139;48.114;11.442;2023-07-09T04:41:29;6.93;;;6.00;;
14121;SDS011;7139;48.114;11.442;2023-07-09T04:43:56;6.80;;;5.20;;
14121;SDS011;7139;48.114;11.442;2023-07-09T04:46:24;6.33;;;5.13;;
14121;SDS011;7139;48.114;11.442;2023-07-09T04:48:51;6.13;;;5.27;;
14121;SDS011;7139;48.114;11.442;2023-07-09T04:51:18;6.97;;;5.20;;
14121;SDS011;7139;48.114;11.442;2023-07-09T04:53:44;6.23;;;5.63;;
14121;SDS011;7139;48.114;11.442;2023-07-09T04:56:11;6.80;;;5.70;;
14121;SDS011;7139;48.114;11.442;2023-07-09T04:58:38;6.67;;;5.77;;
14121;SDS011;7139;48.114;11.442;2023-07-09T05:01:05;6.50;;;5.83;;
14121;SDS011;7139;48.114;11.442;2023-07-09T05:03:33;6.10;;;5.50;;
14121;SDS011;7139;48.114;11.442;2023-07-09T05:05:59;7.20;;;5.50;;
14121;SDS011;7139;48.114;11.442;2023-07-09T05:08:26;6.97;;;4.97;;
14121;SDS011;7139;48.114;11.442;2023-07-09T05:10:55;6.77;;;5.70;;
14121;SDS011;7139;48.114;11.442;2023-07-09T05:13:23;5.77;;;4.87;;
14121;SDS011;7139;48.114;11.442;2023-07-09T05:15:51;6.10;;;5.40;;
14121;SDS011;7139;48.114;11.442;2023-07-09T05:18:18;7.60;;;5.30;;
14121;SDS011;7139;48.114;11.442;2023-07-09T05:20:46;6.00;;;5.10;;
14121;SDS011;7139;48.114;11.442;2023-07-09T05:23:13;6.07;;;4.67;;
14121;SDS011;7139;48.114;11.442;2023-07-09T05:25:40;6.83;;;4.93;;
14121;SDS011;7139;48.114;11.442;2023-07-09T05:28:07;7.70;;;5.33;;
14121;SDS011;7139;48.114;11.442;2023-07-09T05:30:34;6.83;;;5.60;;
14121;SDS011;7139;48.114;11.442;2023-07-09T05:33:00;6.53;;;4.87;;
14121;SDS011;7139;48.114;11.442;2023-07-09T05:35:27;5.80;;;4.67;;
14121;SDS011;7139;48.114;11.442;2023-07-09T05:37:55;5.87;;;5.00;;
14121;SDS011;7139;48.114;11.442;2023-07-09T05:40:22;7.00;;;5.40;;
14121;SDS011;7139;48.114;11.442;2023-07-09T05:42:49;7.73;;;5.00;;
14121;SDS011;7139;48.114;11.442;2023-07-09T05:45:16;5.67;;;4.83;;
14121;SDS011;7139;48.114;11.442;2023-07-09T05:47:42;6.20;;;4.80;;
14121;SDS011;7139;48.114;11.442;2023-07-09T05:50:09;6.50;;;5.20;;
14121;SDS011;7139;48.114;11.442;2023-07-09T05:52:36;5.47;;;4.47;;
14121;SDS011;7139;48.114;11.442;2023-07-09T05:55:05;5.30;;;4.80;;
14121;SDS011;7139;48.114;11.442;2023-07-09T05:57:32;5.03;;;4.53;;
14121;SDS011;7139;48.114;11.442;2023-07-09T05:59:59;5.40;;;4.40;;
14121;SDS011;7139;48.114;11.442;2023-07-09T06:02:26;6.37;;;4.40;;
14121;SDS011;7139;48.114;11.442;2023-07-09T06:04:52;4.90;;;4.40;;
14121;SDS011;7139;48.114;11.442;2023-07-09T06:07:21;5.07;;;4.57;;
14121;SDS011;7139;48.114;11.442;2023-07-09T06:09:48;5.20;;;4.70;;
14121;SDS011;7139;48.114;11.442;2023-07-09T06:12:16;6.43;;;4.73;;
14121;SDS011;7139;48.114;11.442;2023-07-09T06:14:44;6.00;;;4.77;;
14121;SDS011;7139;48.114;11.442;2023-07-09T06:17:11;6.60;;;4.93;;
14121;SDS011;7139;48.114;11.442;2023-07-09T06:19:38;6.60;;;4.63;;
14121;SDS011;7139;48.114;11.442;2023-07-09T06:22:05;6.07;;;4.67;;
14121;SDS011;7139;48.114;11.442;2023-07-09T06:24:32;5.60;;;4.50;;
14121;SDS011;7139;48.114;11.442;2023-07-09T06:26:59;5.40;;;4.60;;
14121;SDS011;7139;48.114;11.442;2023-07-09T06:29:27;6.27;;;4.70;;
14121;SDS011;7139;48.114;11.442;2023-07-09T06:31:53;5.73;;;4.20;;
14121;SDS011;7139;48.114;11.442;2023-07-09T06:34:20;9.37;;;4.60;;
14121;SDS011;7139;48.114;11.442;2023-07-09T06:36:47;7.77;;;4.47;;
14121;SDS011;7139;48.114;11.442;2023-07-09T06:39:14;5.30;;;4.23;;
14121;SDS011;7139;48.114;11.442;2023-07-09T06:41:41;6.10;;;4.27;;
14121;SDS011;7139;48.114;11.442;2023-07-09T06:44:08;6.70;;;4.97;;
14121;SDS011;7139;48.114;11.442;2023-07-09T06:46:37;4.65;;;4.18;;
14121;SDS011;7139;48.114;11.442;2023-07-09T06:49:04;7.20;;;4.38;;
14121;SDS011;7139;48.114;11.442;2023-07-09T06:51:31;5.47;;;4.70;;
14121;SDS011;7139;48.114;11.442;2023-07-09T06:53:58;6.47;;;3.97;;
14121;SDS011;7139;48.114;11.442;2023-07-09T06:56:25;6.78;;;4.50;;
14121;SDS011;7139;48.114;11.442;2023-07-09T06:58:52;4.68;;;4.18;;
14121;SDS011;7139;48.114;11.442;2023-07-09T07:01:19;4.90;;;4.10;;
14121;SDS011;7139;48.114;11.442;2023-07-09T07:03:47;5.22;;;4.28;;
14121;SDS011;7139;48.114;11.442;2023-07-09T07:06:14;5.85;;;4.32;;
14121;SDS011;7139;48.114;11.442;2023-07-09T07:08:41;5.75;;;4.40;;
14121;SDS011;7139;48.114;11.442;2023-07-09T07:11:08;5.53;;;4.20;;
14121;SDS011;7139;48.114;11.442;2023-07-09T07:13:35;5.05;;;4.40;;
14121;SDS011;7139;48.114;11.442;2023-07-09T07:16:04;5.55;;;4.00;;
14121;SDS011;7139;48.114;11.442;2023-07-09T07:18:32;7.32;;;4.18;;
14121;SDS011;7139;48.114;11.442;2023-07-09T07:21:01;5.82;;;3.63;;
14121;SDS011;7139;48.114;11.442;2023-07-09T07:23:28;5.38;;;4.20;;
14121;SDS011;7139;48.114;11.442;2023-07-09T07:25:55;6.05;;;3.92;;
14121;SDS011;7139;48.114;11.442;2023-07-09T07:28:21;7.22;;;4.35;;
14121;SDS011;7139;48.114;11.442;2023-07-09T07:30:57;5.05;;;4.00;;
14121;SDS011;7139;48.114;11.442;2023-07-09T07:33:24;6.07;;;4.43;;
14121;SDS011;7139;48.114;11.442;2023-07-09T07:35:51;6.85;;;3.92;;
14121;SDS011;7139;48.114;11.442;2023-07-09T07:38:19;6.75;;;4.30;;
14121;SDS011;7139;48.114;11.442;2023-07-09T07:40:45;5.13;;;4.25;;
14121;SDS011;7139;48.114;11.442;2023-07-09T07:43:12;4.38;;;3.90;;
14121;SDS011;7139;48.114;11.442;2023-07-09T07:45:39;4.43;;;4.00;;
14121;SDS011;7139;48.114;11.442;2023-07-09T07:48:06;4.60;;;4.10;;
14121;SDS011;7139;48.114;11.442;2023-07-09T07:50:33;5.75;;;4.20;;
14121;SDS011;7139;48.114;11.442;2023-07-09T07:53:00;4.85;;;3.92;;
14121;SDS011;7139;48.114;11.442;2023-07-09T07:55:29;5.68;;;4.35;;
14121;SDS011;7139;48.114;11.442;2023-07-09T07:57:56;4.75;;;3.95;;
14121;SDS011;7139;48.114;11.442;2023-07-09T08:00:23;6.20;;;4.35;;
14121;SDS011;7139;48.114;11.442;2023-07-09T08:02:50;7.72;;;4.45;;
14121;SDS011;7139;48.114;11.442;2023-07-09T08:05:17;6.00;;;4.22;;
14121;SDS011;7139;48.114;11.442;2023-07-09T08:07:44;4.57;;;3.95;;
14121;SDS011;7139;48.114;11.442;2023-07-09T08:10:11;8.00;;;4.53;;
14121;SDS011;7139;48.114;11.442;2023-07-09T08:12:40;5.57;;;4.35;;
14121;SDS011;7139;48.114;11.442;2023-07-09T08:15:07;5.35;;;3.97;;
14121;SDS011;7139;48.114;11.442;2023-07-09T08:17:34;7.22;;;4.30;;
14121;SDS011;7139;48.114;11.442;2023-07-09T08:20:01;4.03;;;3.63;;
14121;SDS011;7139;48.114;11.442;2023-07-09T08:22:28;5.15;;;4.18;;
14121;SDS011;7139;48.114;11.442;2023-07-09T08:24:54;7.13;;;4.45;;
14121;SDS011;7139;48.114;11.442;2023-07-09T08:27:21;4.75;;;4.25;;
14121;SDS011;7139;48.114;11.442;2023-07-09T08:29:49;4.90;;;4.30;;
14121;SDS011;7139;48.114;11.442;2023-07-09T08:32:16;5.78;;;3.90;;
14121;SDS011;7139;48.114;11.442;2023-07-09T08:34:43;5.55;;;4.10;;
14121;SDS011;7139;48.114;11.442;2023-07-09T08:37:10;7.50;;;4.20;;
14121;SDS011;7139;48.114;11.442;2023-07-09T08:39:36;5.05;;;4.45;;
14121;SDS011;7139;48.114;11.442;2023-07-09T08:42:04;4.95;;;4.32;;
14121;SDS011;7139;48.114;11.442;2023-07-09T08:44:43;6.32;;;4.00;;
14121;SDS011;7139;48.114;11.442;2023-07-09T08:47:25;4.43;;;4.03;;
14121;SDS011;7139;48.114;11.442;2023-07-09T08:50:00;4.72;;;4.25;;
14121;SDS011;7139;48.114;11.442;2023-07-09T08:52:31;5.13;;;4.63;;
14121;SDS011;7139;48.114;11.442;2023-07-09T08:55:02;4.65;;;4.25;;
14121;SDS011;7139;48.114;11.442;2023-07-09T08:57:34;5.07;;;4.15;;
14121;SDS011;7139;48.114;11.442;2023-07-09T09:00:05;5.78;;;4.90;;
14121;SDS011;7139;48.114;11.442;2023-07-09T09:02:41;5.32;;;4.07;;
14121;SDS011;7139;48.114;11.442;2023-07-09T09:05:14;5.78;;;4.28;;
14121;SDS011;7139;48.114;11.442;2023-07-09T09:07:44;6.05;;;4.38;;
14121;SDS011;7139;48.114;11.442;2023-07-09T09:10:17;4.50;;;4.10;;
14121;SDS011;7139;48.114;11.442;2023-07-09T09:12:54;7.10;;;4.20;;
14121;SDS011;7139;48.114;11.442;2023-07-09T09:15:32;5.22;;;4.50;;
14121;SDS011;7139;48.114;11.442;2023-07-09T09:18:01;5.65;;;4.35;;
14121;SDS011;7139;48.114;11.442;2023-07-09T09:20:42;6.88;;;4.45;;
14121;SDS011;7139;48.114;11.442;2023-07-09T09:23:12;5.63;;;4.90;;
14121;SDS011;7139;48.114;11.442;2023-07-09T09:25:41;6.45;;;4.47;;
14121;SDS011;7139;48.114;11.442;2023-07-09T09:28:13;4.85;;;4.30;;
14121;SDS011;7139;48.114;11.442;2023-07-09T09:30:41;5.43;;;4.25;;
14121;SDS011;7139;48.114;11.442;2023-07-09T09:33:08;7.13;;;4.30;;
14121;SDS011;7139;48.114;11.442;2023-07-09T09:35:37;6.05;;;4.03;;
14121;SDS011;7139;48.114;11.442;2023-07-09T09:38:10;5.32;;;4.47;;
14121;SDS011;7139;48.114;11.442;2023-07-09T09:40:38;6.72;;;4.38;;
14121;SDS011;7139;48.114;11.442;2023-07-09T09:43:09;4.95;;;4.07;;
14121;SDS011;7139;48.114;11.442;2023-07-09T09:45:40;4.63;;;3.97;;
14121;SDS011;7139;48.114;11.442;2023-07-09T09:48:13;6.28;;;4.13;;
14121;SDS011;7139;48.114;11.442;2023-07-09T09:50:41;6.47;;;4.38;;
14121;SDS011;7139;48.114;11.442;2023-07-09T09:53:09;6.10;;;4.30;;
14121;SDS011;7139;48.114;11.442;2023-07-09T09:55:42;4.20;;;3.83;;
14121;SDS011;7139;48.114;11.442;2023-07-09T09:58:11;4.90;;;4.18;;
14121;SDS011;7139;48.114;11.442;2023-07-09T10:00:46;6.07;;;4.10;;
14121;SDS011;7139;48.114;11.442;2023-07-09T10:03:14;7.55;;;3.88;;
14121;SDS011;7139;48.114;11.442;2023-07-09T10:05:42;4.07;;;3.67;;
14121;SDS011;7139;48.114;11.442;2023-07-09T10:08:12;5.47;;;3.60;;
14121;SDS011;7139;48.114;11.442;2023-07-09T10:10:46;4.60;;;3.70;;
14121;SDS011;7139;48.114;11.442;2023-07-09T10:13:17;6.53;;;3.72;;
14121;SDS011;7139;48.114;11.442;2023-07-09T10:15:55;5.63;;;3.97;;
14121;SDS011;7139;48.114;11.442;2023-07-09T10:18:29;7.15;;;4.03;;
14121;SDS011;7139;48.114;11.442;2023-07-09T10:21:09;6.40;;;4.00;;
14121;SDS011;7139;48.114;11.442;2023-07-09T10:23:43;7.75;;;4.20;;
14121;SDS011;7139;48.114;11.442;2023-07-09T10:26:15;5.93;;;4.22;;
14121;SDS011;7139;48.114;11.442;2023-07-09T10:29:02;4.75;;;4.15;;
14121;SDS011;7139;48.114;11.442;2023-07-09T10:31:40;5.18;;;3.75;;
14121;SDS011;7139;48.114;11.442;2023-07-09T10:34:16;6.03;;;3.72;;
14121;SDS011;7139;48.114;11.442;2023-07-09T10:37:00;5.55;;;4.03;;
14121;SDS011;7139;48.114;11.442;2023-07-09T10:39:40;6.43;;;4.03;;
14121;SDS011;7139;48.114;11.442;2023-07-09T10:42:13;4.10;;;3.70;;
14121;SDS011;7139;48.114;11.442;2023-07-09T10:44:50;5.28;;;4.18;;
14121;SDS011;7139;48.114;11.442;2023-07-09T10:47:25;4.72;;;4.32;;
14121;SDS011;7139;48.114;11.442;2023-07-09T10:49:56;5.93;;;4.13;;
14121;SDS011;7139;48.114;11.442;2023-07-09T10:52:25;5.93;;;4.00;;
14121;SDS011;7139;48.114;11.442;2023-07-09T10:54:56;5.50;;;3.90;;
14121;SDS011;7139;48.114;11.442;2023-07-09T10:57:29;5.35;;;4.00;;
14121;SDS011;7139;48.114;11.442;2023-07-09T11:00:00;6.85;;;4.38;;
14121;SDS011;7139;48.114;11.442;2023-07-09T11:02:31;5.00;;;4.50;;
14121;SDS011;7139;48.114;11.442;2023-07-09T11:05:01;4.93;;;4.22;;
14121;SDS011;7139;48.114;11.442;2023-07-09T11:07:30;4.35;;;3.90;;
14121;SDS011;7139;48.114;11.442;2023-07-09T11:10:00;5.57;;;4.13;;
14121;SDS011;7139;48.114;11.442;2023-07-09T11:12:32;5.18;;;4.10;;
14121;SDS011;7139;48.114;11.442;2023-07-09T11:15:02;5.85;;;4.07;;
14121;SDS011;7139;48.114;11.442;2023-07-09T11:17:35;4.60;;;3.92;;
14121;SDS011;7139;48.114;11.442;2023-07-09T11:20:06;6.70;;;4.30;;
14121;SDS011;7139;48.114;11.442;2023-07-09T11:22:41;5.40;;;4.20;;
14121;SDS011;7139;48.114;11.442;2023-07-09T11:25:16;6.47;;;4.00;;
14121;SDS011;7139;48.114;11.442;2023-07-09T11:28:00;5.30;;;3.60;;
14121;SDS011;7139;48.114;11.442;2023-07-09T11:30:29;5.85;;;3.83;;
14121;SDS011;7139;48.114;11.442;2023-07-09T11:32:58;6.50;;;4.32;;
14121;SDS011;7139;48.114;11.442;2023-07-09T11:35:27;5.10;;;4.03;;
14121;SDS011;7139;48.114;11.442;2023-07-09T11:37:55;4.40;;;3.97;;
14121;SDS011;7139;48.114;11.442;2023-07-09T11:40:23;5.13;;;4.15;;
14121;SDS011;7139;48.114;11.442;2023-07-09T11:42:51;4.68;;;3.97;;
14121;SDS011;7139;48.114;11.442;2023-07-09T11:45:21;5.35;;;3.70;;
14121;SDS011;7139;48.114;11.442;2023-07-09T11:47:52;6.53;;;4.00;;
14121;SDS011;7139;48.114;11.442;2023-07-09T11:50:31;10.98;;;9.95;;
14121;SDS011;7139;48.114;11.442;2023-07-09T11:53:02;7.35;;;5.85;;
14121;SDS011;7139;48.114;11.442;2023-07-09T11:55:33;5.45;;;4.90;;
14121;SDS011;7139;48.114;11.442;2023-07-09T11:58:07;6.32;;;5.72;;
14121;SDS011;7139;48.114;11.442;2023-07-09T12:00:37;6.75;;;4.45;;
14121;SDS011;7139;48.114;11.442;2023-07-09T12:03:05;5.93;;;4.10;;
14121;SDS011;7139;48.114;11.442;2023-07-09T12:05:34;5.53;;;3.80;;
14121;SDS011;7139;48.114;11.442;2023-07-09T12:08:01;4.88;;;4.25;;
14121;SDS011;7139;48.114;11.442;2023-07-09T12:10:32;5.22;;;4.35;;
14121;SDS011;7139;48.114;11.442;2023-07-09T12:13:00;6.15;;;4.20;;
14121;SDS011;7139;48.114;11.442;2023-07-09T12:15:29;7.05;;;3.85;;
14121;SDS011;7139;48.114;11.442;2023-07-09T12:17:57;6.10;;;3.95;;
14121;SDS011;7139;48.114;11.442;2023-07-09T12:20:25;5.90;;;3.83;;
14121;SDS011;7139;48.114;11.442;2023-07-09T12:22:57;5.47;;;4.10;;
14121;SDS011;7139;48.114;11.442;2023-07-09T12:25:25;5.55;;;3.90;;
14121;SDS011;7139;48.114;11.442;2023-07-09T12:27:54;4.13;;;3.72;;
14121;SDS011;7139;48.114;11.442;2023-07-09T12:30:23;5.55;;;3.85;;
14121;SDS011;7139;48.114;11.442;2023-07-09T12:32:50;5.97;;;4.35;;
14121;SDS011;7139;48.114;11.442;2023-07-09T12:35:18;4.10;;;3.45;;
14121;SDS011;7139;48.114;11.442;2023-07-09T12:37:46;4.82;;;4.03;;
14121;SDS011;7139;48.114;11.442;2023-07-09T12:40:20;4.95;;;3.70;;
14121;SDS011;7139;48.114;11.442;2023-07-09T12:42:48;4.40;;;4.00;;
14121;SDS011;7139;48.114;11.442;2023-07-09T12:45:16;4.20;;;3.70;;
14121;SDS011;7139;48.114;11.442;2023-07-09T12:47:45;4.88;;;4.10;;
14121;SDS011;7139;48.114;11.442;2023-07-09T12:50:17;4.32;;;3.92;;
14121;SDS011;7139;48.114;11.442;2023-07-09T12:52:54;4.35;;;3.90;;
14121;SDS011;7139;48.114;11.442;2023-07-09T12:55:24;4.68;;;4.13;;
14121;SDS011;7139;48.114;11.442;2023-07-09T12:57:54;5.13;;;4.10;;
14121;SDS011;7139;48.114;11.442;2023-07-09T13:00:22;5.65;;;4.15;;
14121;SDS011;7139;48.114;11.442;2023-07-09T13:02:53;5.55;;;3.95;;
14121;SDS011;7139;48.114;11.442;2023-07-09T13:05:21;4.78;;;4.00;;
14121;SDS011;7139;48.114;11.442;2023-07-09T13:07:50;4.95;;;4.30;;
14121;SDS011;7139;48.114;11.442;2023-07-09T13:10:19;5.43;;;4.20;;
14121;SDS011;7139;48.114;11.442;2023-07-09T13:12:52;4.78;;;4.00;;
14121;SDS011;7139;48.114;11.442;2023-07-09T13:15:25;5.38;;;3.80;;
14121;SDS011;7139;48.114;11.442;2023-07-09T13:17:57;5.35;;;3.90;;
14121;SDS011;7139;48.114;11.442;2023-07-09T13:20:25;4.90;;;4.40;;
14121;SDS011;7139;48.114;11.442;2023-07-09T13:22:52;5.57;;;4.22;;
14121;SDS011;7139;48.114;11.442;2023-07-09T13:25:19;5.00;;;4.20;;
14121;SDS011;7139;48.114;11.442;2023-07-09T13:27:45;5.00;;;4.10;;
14121;SDS011;7139;48.114;11.442;2023-07-09T13:30:14;5.43;;;4.20;;
14121;SDS011;7139;48.114;11.442;2023-07-09T13:32:40;4.95;;;3.83;;
14121;SDS011;7139;48.114;11.442;2023-07-09T13:35:12;5.05;;;3.85;;
14121;SDS011;7139;48.114;11.442;2023-07-09T13:37:41;5.07;;;3.80;;
14121;SDS011;7139;48.114;11.442;2023-07-09T13:40:09;5.35;;;4.18;;
14121;SDS011;7139;48.114;11.442;2023-07-09T13:42:38;5.57;;;3.80;;
14121;SDS011;7139;48.114;11.442;2023-07-09T13:45:08;6.20;;;3.97;;
14121;SDS011;7139;48.114;11.442;2023-07-09T13:47:45;5.18;;;4.22;;
14121;SDS011;7139;48.114;11.442;2023-07-09T13:50:13;4.78;;;4.18;;
14121;SDS011;7139;48.114;11.442;2023-07-09T13:52:41;4.63;;;4.20;;
14121;SDS011;7139;48.114;11.442;2023-07-09T13:55:10;7.25;;;4.40;;
14121;SDS011;7139;48.114;11.442;2023-07-09T13:57:43;7.13;;;4.55;;
14121;SDS011;7139;48.114;11.442;2023-07-09T14:00:10;5.20;;;4.15;;
14121;SDS011;7139;48.114;11.442;2023-07-09T14:02:39;4.68;;;4.18;;
14121;SDS011;7139;48.114;11.442;2023-07-09T14:05:07;5.47;;;4.53;;
14121;SDS011;7139;48.114;11.442;2023-07-09T14:07:37;5.18;;;4.30;;
14121;SDS011;7139;48.114;11.442;2023-07-09T14:10:06;11.40;;;10.02;;
14121;SDS011;7139;48.114;11.442;2023-07-09T14:12:38;5.00;;;4.50;;
14121;SDS011;7139;48.114;11.442;2023-07-09T14:15:11;5.60;;;4.38;;
14121;SDS011;7139;48.114;11.442;2023-07-09T14:17:41;4.50;;;4.10;;
14121;SDS011;7139;48.114;11.442;2023-07-09T14:20:10;5.43;;;4.50;;
14121;SDS011;7139;48.114;11.442;2023-07-09T14:22:38;5.63;;;4.15;;
14121;SDS011;7139;48.114;11.442;2023-07-09T14:25:09;5.97;;;3.97;;
14121;SDS011;7139;48.114;11.442;2023-07-09T14:27:41;5.40;;;3.97;;
14121;SDS011;7139;48.114;11.442;2023-07-09T14:30:09;5.90;;;4.07;;
14121;SDS011;7139;48.114;11.442;2023-07-09T14:32:42;4.75;;;4.10;;
14121;SDS011;7139;48.114;11.442;2023-07-09T14:35:11;4.40;;;3.65;;
14121;SDS011;7139;48.114;11.442;2023-07-09T14:37:40;4.40;;;3.97;;
14121;SDS011;7139;48.114;11.442;2023-07-09T14:40:07;6.25;;;4.20;;
14121;SDS011;7139;48.114;11.442;2023-07-09T14:42:35;6.45;;;3.92;;
14121;SDS011;7139;48.114;11.442;2023-07-09T14:45:03;5.47;;;3.97;;
14121;SDS011;7139;48.114;11.442;2023-07-09T14:47:31;5.18;;;4.28;;
14121;SDS011;7139;48.114;11.442;2023-07-09T14:49:59;5.68;;;4.35;;
14121;SDS011;7139;48.114;11.442;2023-07-09T14:52:25;8.50;;;4.60;;
14121;SDS011;7139;48.114;11.442;2023-07-09T14:54:52;5.13;;;4.25;;
14121;SDS011;7139;48.114;11.442;2023-07-09T14:57:20;6.57;;;3.95;;
14121;SDS011;7139;48.114;11.442;2023-07-09T14:59:49;4.82;;;4.18;;
14121;SDS011;7139;48.114;11.442;2023-07-09T15:02:20;6.00;;;4.28;;